Time;durP1;ratioP1;P1;durP2;ratioP2;P2;SDS_P1;SDS_P2;PMS_P1;PMS_P2;Temp;Humidity;BMP_temperature;BMP_pressure;BME280_temperature;BME280_humidity;BME280_pressure;Samples;Min_cycle;Max_cycle;Signal;HPM_P1;HPM_P2
2022/06/09 00:01:28;;;;;;;20.90;10.55;;;14.50;99.90;;;;;;5054702;28;20040;-81
2022/06/09 00:04:02;;;;;;;23.52;10.68;;;14.50;99.90;;;;;;5041335;28;20053;-81
2022/06/09 00:06:36;;;;;;;27.48;10.93;;;14.50;99.90;;;;;;5042826;28;20029;-81
2022/06/09 00:09:04;;;;;;;27.65;11.05;;;14.50;99.90;;;;;;5036772;28;20406;-81
2022/06/09 00:11:33;;;;;;;21.67;11.27;;;14.50;99.90;;;;;;5060282;28;20076;-82
2022/06/09 00:13:59;;;;;;;21.33;10.95;;;14.60;99.90;;;;;;5037617;28;20051;-81
2022/06/09 00:16:25;;;;;;;31.77;12.70;;;14.50;99.90;;;;;;5045862;28;20096;-81
2022/06/09 00:18:51;;;;;;;27.60;10.77;;;14.60;99.90;;;;;;5061513;28;20412;-81
2022/06/09 00:21:17;;;;;;;33.67;11.68;;;14.60;99.90;;;;;;5067315;28;20033;-81
2022/06/09 00:23:42;;;;;;;23.20;10.45;;;14.60;99.90;;;;;;5045955;28;20025;-81
2022/06/09 00:26:08;;;;;;;25.65;10.30;;;14.60;99.90;;;;;;5070853;28;20049;-81
2022/06/09 00:28:34;;;;;;;27.10;10.55;;;14.60;99.90;;;;;;5045857;28;20037;-81
2022/06/09 00:30:59;;;;;;;25.00;9.80;;;14.50;99.90;;;;;;5061642;28;20093;-81
2022/06/09 00:33:25;;;;;;;21.73;9.10;;;14.50;99.90;;;;;;5061601;28;20499;-80
2022/06/09 00:35:51;;;;;;;20.05;8.70;;;14.50;99.90;;;;;;5045289;28;20045;-80
2022/06/09 00:38:16;;;;;;;27.23;8.88;;;14.50;99.90;;;;;;5060886;28;20080;-80
2022/06/09 00:40:42;;;;;;;23.67;8.40;;;14.50;99.90;;;;;;5045056;28;20119;-81
2022/06/09 00:43:08;;;;;;;23.00;9.55;;;14.50;99.90;;;;;;5054325;28;20116;-81
2022/06/09 00:45:36;;;;;;;25.17;9.75;;;14.50;99.90;;;;;;5054437;28;20048;-81
2022/06/09 00:48:23;;;;;;;28.67;10.57;;;14.50;99.90;;;;;;5060683;28;20037;-81
2022/06/09 00:51:02;;;;;;;23.90;10.88;;;14.50;99.90;;;;;;5058049;28;20048;-80
2022/06/09 00:53:32;;;;;;;30.77;11.27;;;14.50;99.90;;;;;;5053698;28;20041;-80
2022/06/09 00:56:01;;;;;;;31.20;10.95;;;14.40;99.90;;;;;;5049128;28;20117;-81
2022/06/09 00:58:28;;;;;;;22.63;10.77;;;14.40;99.90;;;;;;5057726;28;20487;-81
2022/06/09 01:00:59;;;;;;;25.67;12.00;;;14.40;99.90;;;;;;5056261;28;20033;-81
2022/06/09 01:03:34;;;;;;;23.00;11.45;;;14.30;99.90;;;;;;5051145;28;20037;-81
2022/06/09 01:06:08;;;;;;;30.85;11.40;;;14.40;99.90;;;;;;5056461;28;20040;-81
2022/06/09 01:08:38;;;;;;;27.45;12.13;;;14.30;99.90;;;;;;5056764;28;20043;-81
2022/06/09 01:11:05;;;;;;;24.38;11.20;;;14.30;99.90;;;;;;5052556;28;20124;-81
2022/06/09 01:13:32;;;;;;;22.30;12.27;;;14.30;99.90;;;;;;5053652;28;20067;-81
2022/06/09 01:16:15;;;;;;;33.88;12.60;;;14.30;99.90;;;;;;5041972;28;20095;-80
2022/06/09 01:18:41;;;;;;;30.30;12.90;;;14.30;99.90;;;;;;5054489;28;20072;-81
2022/06/09 01:21:22;;;;;;;37.03;14.27;;;14.30;99.90;;;;;;5057669;28;20048;-82
2022/06/09 01:24:17;;;;;;;27.38;12.05;;;14.40;99.90;;;;;;5058987;28;20550;-81
2022/06/09 01:26:52;;;;;;;30.10;11.95;;;14.40;99.90;;;;;;5014679;28;20380;-81
2022/06/09 01:29:25;;;;;;;29.42;13.93;;;14.40;99.90;;;;;;5053726;28;20052;-81
2022/06/09 01:31:59;;;;;;;27.50;12.30;;;14.40;99.90;;;;;;5035612;28;20168;-81
2022/06/09 01:34:40;;;;;;;25.50;11.90;;;14.40;99.90;;;;;;5059212;28;20067;-80
2022/06/09 01:37:24;;;;;;;27.00;11.57;;;14.50;99.90;;;;;;5038249;28;20044;-81
2022/06/09 01:39:53;;;;;;;31.00;11.13;;;14.40;99.90;;;;;;5057389;28;20064;-81
2022/06/09 01:42:42;;;;;;;32.03;13.15;;;14.50;99.90;;;;;;5036460;28;20044;-80
2022/06/09 01:45:22;;;;;;;28.67;13.02;;;14.50;99.90;;;;;;5037094;28;20533;-80
2022/06/09 01:48:04;;;;;;;31.90;11.48;;;14.50;99.90;;;;;;5055872;28;20033;-80
2022/06/09 01:50:39;;;;;;;30.63;14.00;;;14.50;99.90;;;;;;5050654;28;20033;-80
2022/06/09 01:53:12;;;;;;;23.77;10.95;;;14.50;99.90;;;;;;5050108;28;20071;-81
2022/06/09 01:55:44;;;;;;;30.13;12.40;;;14.50;99.90;;;;;;5048510;28;20672;-80
2022/06/09 01:58:15;;;;;;;28.08;12.80;;;14.50;99.90;;;;;;5042595;28;20041;-80
2022/06/09 02:00:41;;;;;;;32.15;13.48;;;14.50;99.90;;;;;;5053626;28;20033;-80
2022/06/09 02:03:13;;;;;;;28.35;13.93;;;14.50;99.90;;;;;;5049882;28;20043;-80
2022/06/09 02:05:43;;;;;;;22.75;11.45;;;14.50;99.90;;;;;;5051395;28;20542;-81
2022/06/09 02:08:14;;;;;;;34.00;13.93;;;14.50;99.90;;;;;;5034133;28;20052;-80
2022/06/09 02:10:44;;;;;;;26.58;13.07;;;14.50;99.90;;;;;;5052179;28;20048;-80
2022/06/09 02:13:25;;;;;;;23.73;11.75;;;14.50;99.90;;;;;;5038286;28;20029;-80
2022/06/09 02:15:54;;;;;;;23.88;11.70;;;14.50;99.90;;;;;;5046228;28;20418;-82
2022/06/09 02:18:23;;;;;;;42.60;14.30;;;14.30;99.90;;;;;;5050955;28;20037;-80
2022/06/09 02:20:56;;;;;;;25.83;11.40;;;14.30;99.90;;;;;;5038079;28;20122;-81
2022/06/09 02:23:22;;;;;;;35.92;12.68;;;14.30;99.90;;;;;;5050218;28;20044;-80
2022/06/09 02:25:47;;;;;;;33.40;12.85;;;14.30;99.90;;;;;;5054478;28;20043;-80
2022/06/09 02:28:13;;;;;;;35.85;12.98;;;14.20;99.90;;;;;;5031867;28;20395;-81
2022/06/09 02:30:39;;;;;;;27.27;11.85;;;14.20;99.90;;;;;;5045557;28;20428;-80
2022/06/09 02:33:05;;;;;;;31.27;14.45;;;14.20;99.90;;;;;;5037890;28;20043;-80
2022/06/09 02:35:31;;;;;;;29.65;12.65;;;14.10;99.90;;;;;;5050052;28;20045;-80
2022/06/09 02:38:00;;;;;;;30.73;13.65;;;14.10;99.90;;;;;;5056436;28;20040;-81
2022/06/09 02:40:26;;;;;;;30.13;13.93;;;14.10;99.90;;;;;;5049235;28;20120;-82
2022/06/09 02:42:52;;;;;;;33.08;13.90;;;14.00;99.90;;;;;;5052513;28;20037;-81
2022/06/09 02:45:17;;;;;;;30.77;14.23;;;14.00;99.90;;;;;;5036253;28;20094;-82
2022/06/09 02:47:44;;;;;;;29.55;14.00;;;14.00;99.90;;;;;;5038866;28;20044;-81
2022/06/09 02:50:11;;;;;;;35.45;14.57;;;14.00;99.90;;;;;;5035604;28;20119;-81
2022/06/09 02:52:36;;;;;;;42.92;13.70;;;14.00;99.90;;;;;;5046388;28;20036;-81
2022/06/09 02:55:02;;;;;;;32.22;12.65;;;14.00;99.90;;;;;;5051883;28;20657;-81
2022/06/09 02:57:29;;;;;;;32.05;12.38;;;14.00;99.90;;;;;;5032698;28;20051;-81
2022/06/09 02:59:55;;;;;;;25.65;12.35;;;14.00;99.90;;;;;;5052503;28;20434;-81
2022/06/09 03:02:21;;;;;;;38.45;15.43;;;14.10;99.90;;;;;;5053589;28;20028;-81
2022/06/09 03:04:47;;;;;;;34.30;14.90;;;14.10;99.90;;;;;;5036041;28;20044;-81
2022/06/09 03:07:13;;;;;;;36.45;14.63;;;14.10;99.90;;;;;;5052940;28;20041;-81
2022/06/09 03:09:40;;;;;;;38.85;16.17;;;14.10;99.90;;;;;;5049509;28;20033;-81
2022/06/09 03:12:06;;;;;;;29.52;14.68;;;14.10;99.90;;;;;;5031320;28;20033;-81
2022/06/09 03:14:32;;;;;;;29.73;14.32;;;14.10;99.90;;;;;;5050220;28;20035;-81
2022/06/09 03:16:59;;;;;;;31.38;14.93;;;14.10;99.90;;;;;;5041417;28;20064;-81
2022/06/09 03:19:24;;;;;;;27.17;14.68;;;14.10;99.90;;;;;;5039593;28;20131;-81
2022/06/09 03:21:50;;;;;;;37.08;16.33;;;14.10;99.90;;;;;;5050650;28;20041;-81
2022/06/09 03:24:16;;;;;;;38.65;17.77;;;14.10;99.90;;;;;;5054942;28;20035;-81
2022/06/09 03:26:41;;;;;;;32.42;17.17;;;14.10;99.90;;;;;;5045144;28;20052;-81
2022/06/09 03:29:07;;;;;;;36.95;19.25;;;14.10;99.90;;;;;;5050185;28;20041;-81
2022/06/09 03:31:33;;;;;;;41.58;19.38;;;14.00;99.90;;;;;;5052940;28;20048;-81
2022/06/09 03:33:58;;;;;;;32.95;17.70;;;14.00;99.90;;;;;;5053655;28;20119;-81
2022/06/09 03:36:24;;;;;;;35.70;17.30;;;14.00;99.90;;;;;;5052353;28;20041;-81
2022/06/09 03:38:50;;;;;;;33.83;17.40;;;14.00;99.90;;;;;;5035323;28;20385;-81
2022/06/09 03:41:16;;;;;;;29.95;18.48;;;13.90;99.90;;;;;;5055411;28;20047;-81
2022/06/09 03:43:41;;;;;;;38.00;18.50;;;13.90;99.90;;;;;;5053153;28;20047;-80
2022/06/09 03:46:07;;;;;;;39.65;18.90;;;13.90;99.90;;;;;;5054221;28;20123;-80
2022/06/09 03:48:34;;;;;;;30.73;17.70;;;13.90;99.90;;;;;;5055812;28;20044;-81
2022/06/09 03:51:00;;;;;;;28.08;15.45;;;13.90;99.90;;;;;;5056994;28;20380;-80
2022/06/09 03:53:25;;;;;;;30.77;15.35;;;13.90;99.90;;;;;;5051412;28;20051;-80
2022/06/09 03:55:51;;;;;;;26.55;16.23;;;13.90;99.90;;;;;;5039578;28;20037;-80
2022/06/09 03:58:16;;;;;;;30.35;16.17;;;13.90;99.90;;;;;;5053217;28;20060;-81
2022/06/09 04:00:42;;;;;;;29.23;15.68;;;13.90;99.90;;;;;;5060561;28;20172;-80
2022/06/09 04:03:08;;;;;;;28.17;15.68;;;13.90;99.90;;;;;;5038117;28;20041;-81
2022/06/09 04:05:34;;;;;;;25.73;14.38;;;13.90;99.90;;;;;;5059017;28;20041;-81
2022/06/09 04:08:03;;;;;;;26.42;12.95;;;13.90;99.90;;;;;;5054797;28;20028;-81
2022/06/09 04:10:32;;;;;;;24.38;12.00;;;14.00;99.90;;;;;;5052090;28;20060;-81
2022/06/09 04:12:58;;;;;;;23.88;13.23;;;13.90;99.90;;;;;;5055366;28;20040;-81
2022/06/09 04:15:24;;;;;;;22.40;11.73;;;14.00;99.90;;;;;;5056493;28;20040;-81
2022/06/09 04:17:52;;;;;;;23.15;11.98;;;14.00;99.90;;;;;;5049128;28;20034;-81
2022/06/09 04:20:21;;;;;;;23.05;11.98;;;14.00;99.90;;;;;;5056714;28;20033;-80
2022/06/09 04:22:46;;;;;;;20.48;11.60;;;14.00;99.90;;;;;;5051169;28;20093;-81
2022/06/09 04:25:12;;;;;;;21.98;10.85;;;14.00;99.90;;;;;;5055325;28;20063;-81
2022/06/09 04:27:39;;;;;;;19.63;10.52;;;14.00;99.90;;;;;;5054310;28;20072;-81
2022/06/09 04:30:06;;;;;;;21.92;11.52;;;14.00;99.90;;;;;;5047673;28;20512;-81
2022/06/09 04:32:31;;;;;;;22.05;10.90;;;14.10;99.90;;;;;;5055270;28;20045;-81
2022/06/09 04:34:57;;;;;;;15.13;8.57;;;14.10;99.90;;;;;;5046971;28;20040;-81
2022/06/09 04:37:59;;;;;;;28.20;8.75;;;14.10;99.90;;;;;;5054343;28;20029;-81
2022/06/09 04:40:10;;;;;;;16.08;7.78;;;14.10;99.90;;;;;;5052109;28;20147;-81
2022/06/09 04:42:36;;;;;;;13.23;8.13;;;14.10;99.90;;;;;;5057112;28;20037;-81
2022/06/09 04:45:02;;;;;;;18.45;7.40;;;14.10;99.90;;;;;;5053657;28;20036;-81
2022/06/09 04:47:27;;;;;;;16.23;8.52;;;14.10;99.90;;;;;;5055185;28;20056;-81
2022/06/09 04:49:53;;;;;;;18.98;7.90;;;14.00;99.90;;;;;;5035251;28;20398;-80
2022/06/09 04:52:18;;;;;;;21.20;8.60;;;14.10;99.90;;;;;;5054386;28;20037;-81
2022/06/09 04:54:44;;;;;;;14.43;6.80;;;14.10;99.90;;;;;;5055286;28;20102;-81
2022/06/09 04:57:10;;;;;;;15.88;7.88;;;14.10;99.90;;;;;;5055902;28;20079;-81
2022/06/09 04:59:36;;;;;;;15.93;7.78;;;14.20;99.90;;;;;;5050956;28;20037;-81
2022/06/09 05:02:01;;;;;;;20.10;7.55;;;14.20;99.90;;;;;;5054994;28;20120;-82
2022/06/09 05:04:27;;;;;;;14.35;7.38;;;14.20;99.90;;;;;;5075495;28;20112;-81
2022/06/09 05:06:52;;;;;;;19.08;8.05;;;14.30;99.90;;;;;;5073233;28;20017;-80
2022/06/09 05:09:18;;;;;;;18.20;8.50;;;14.30;99.90;;;;;;5076040;28;20083;-81
2022/06/09 05:11:44;;;;;;;14.75;7.68;;;14.40;99.90;;;;;;5047469;28;20045;-81
2022/06/09 05:14:10;;;;;;;13.18;6.80;;;14.40;99.90;;;;;;5072923;28;20029;-81
2022/06/09 05:16:37;;;;;;;17.50;7.72;;;14.40;99.90;;;;;;5062968;28;20052;-80
2022/06/09 05:19:03;;;;;;;16.42;9.00;;;14.40;99.90;;;;;;5061086;28;20045;-80
2022/06/09 05:21:29;;;;;;;15.50;8.45;;;14.40;99.90;;;;;;5059987;28;20033;-81
2022/06/09 05:23:54;;;;;;;16.42;9.52;;;14.40;99.90;;;;;;5059567;28;20442;-81
2022/06/09 05:26:21;;;;;;;20.45;10.77;;;14.40;99.90;;;;;;5058615;28;20127;-81
2022/06/09 05:28:47;;;;;;;17.35;11.88;;;14.30;99.90;;;;;;5041001;28;20029;-80
2022/06/09 05:31:13;;;;;;;21.83;13.45;;;14.30;99.90;;;;;;5056789;28;20380;-81
2022/06/09 05:33:38;;;;;;;20.23;12.15;;;14.30;99.90;;;;;;5057787;28;20052;-81
2022/06/09 05:36:04;;;;;;;24.65;13.52;;;14.30;99.90;;;;;;5057223;28;20339;-80
2022/06/09 05:46:45;;;;;;;23.00;14.50;;;14.30;99.90;;;;;;5055818;28;19925;-80
2022/06/09 05:49:11;;;;;;;24.42;15.25;;;14.20;99.90;;;;;;5039818;28;20093;-80
2022/06/09 05:51:37;;;;;;;22.45;15.15;;;14.20;99.90;;;;;;5055279;28;20037;-80
2022/06/09 05:54:03;;;;;;;20.88;14.02;;;14.20;99.90;;;;;;5055641;28;20441;-80
2022/06/09 05:56:29;;;;;;;21.77;14.30;;;14.20;99.90;;;;;;5038782;28;20045;-81
2022/06/09 05:58:55;;;;;;;19.80;14.75;;;14.20;99.90;;;;;;5054624;28;20388;-81
2022/06/09 06:01:21;;;;;;;24.65;16.42;;;14.10;99.90;;;;;;5055438;28;20059;-80
2022/06/09 06:03:47;;;;;;;23.50;15.80;;;14.20;99.90;;;;;;5054494;28;20051;-81
2022/06/09 06:08:57;;;;;;;25.85;16.27;;;14.30;99.90;;;;;;5037510;28;20053;-80
2022/06/09 06:11:23;;;;;;;27.65;16.60;;;14.30;99.90;;;;;;5017688;28;20042;-81
2022/06/09 06:13:49;;;;;;;25.58;15.70;;;14.30;99.90;;;;;;5035475;28;20496;-80
2022/06/09 06:16:15;;;;;;;22.33;14.98;;;14.30;99.90;;;;;;5035221;28;20042;-80
2022/06/09 06:18:41;;;;;;;24.13;16.15;;;14.30;99.90;;;;;;5033881;28;20033;-80
2022/06/09 06:21:07;;;;;;;23.67;14.95;;;14.30;99.90;;;;;;5034047;28;20087;-80
2022/06/09 06:23:32;;;;;;;19.98;14.63;;;14.30;99.90;;;;;;5038539;28;20033;-80
2022/06/09 06:25:58;;;;;;;22.52;16.13;;;14.40;99.90;;;;;;5052997;28;20519;-81
2022/06/09 06:28:25;;;;;;;29.92;17.45;;;14.50;99.90;;;;;;5053044;28;20064;-80
2022/06/09 06:30:51;;;;;;;23.02;16.92;;;14.50;99.90;;;;;;5054382;28;20098;-80
2022/06/09 06:33:17;;;;;;;26.83;16.48;;;14.50;99.90;;;;;;5054342;28;20045;-80
2022/06/09 06:35:44;;;;;;;24.35;17.63;;;14.50;99.90;;;;;;5063357;28;20045;-80
2022/06/09 06:38:09;;;;;;;20.95;14.70;;;14.70;99.90;;;;;;5062574;28;20033;-81
2022/06/09 06:40:35;;;;;;;27.20;16.23;;;14.80;99.90;;;;;;5064221;28;20100;-80
2022/06/09 06:43:01;;;;;;;23.08;16.70;;;15.00;99.90;;;;;;5061321;28;20375;-80
2022/06/09 06:45:27;;;;;;;22.35;16.75;;;15.10;99.90;;;;;;5062628;28;20116;-80
2022/06/09 06:47:54;;;;;;;26.58;16.65;;;15.20;99.90;;;;;;5060086;28;20495;-80
2022/06/09 06:50:20;;;;;;;23.02;15.95;;;15.30;99.90;;;;;;5042565;28;20415;-81
2022/06/09 06:52:46;;;;;;;22.95;16.35;;;15.50;99.90;;;;;;5061234;28;20040;-81
2022/06/09 06:55:15;;;;;;;23.17;16.10;;;15.70;99.90;;;;;;5061768;28;20044;-80
2022/06/09 06:57:41;;;;;;;22.00;14.57;;;15.80;99.90;;;;;;5060578;28;20072;-80
2022/06/09 07:00:09;;;;;;;22.65;15.30;;;15.90;99.90;;;;;;5044542;28;20048;-81
2022/06/09 07:02:35;;;;;;;23.00;16.15;;;15.90;99.90;;;;;;5061896;28;20491;-81
2022/06/09 07:05:00;;;;;;;22.98;14.65;;;16.10;99.90;;;;;;5062753;28;20110;-81
2022/06/09 07:07:26;;;;;;;20.88;13.80;;;16.30;99.90;;;;;;5041435;28;20104;-81
2022/06/09 07:09:52;;;;;;;23.63;14.13;;;16.70;99.90;;;;;;5042456;28;20072;-80
2022/06/09 07:12:18;;;;;;;19.05;13.98;;;16.90;99.90;;;;;;5057610;28;20049;-81
2022/06/09 07:14:44;;;;;;;20.85;14.00;;;16.90;99.90;;;;;;5058925;28;20045;-81
2022/06/09 07:17:09;;;;;;;20.52;15.07;;;16.90;99.90;;;;;;5057409;28;20049;-81
2022/06/09 07:19:35;;;;;;;18.67;14.40;;;17.00;99.90;;;;;;5057180;28;20041;-81
2022/06/09 07:22:02;;;;;;;18.42;12.95;;;17.30;99.90;;;;;;5057371;28;20041;-81
2022/06/09 07:24:28;;;;;;;17.48;12.63;;;17.60;99.90;;;;;;5057075;28;20376;-81
2022/06/09 07:26:54;;;;;;;16.20;13.18;;;17.70;99.90;;;;;;5039188;28;20498;-81
2022/06/09 07:29:20;;;;;;;16.00;12.63;;;17.80;99.90;;;;;;5056695;28;20079;-81
2022/06/09 07:31:46;;;;;;;14.18;11.18;;;18.00;99.90;;;;;;5055974;28;20041;-82
2022/06/09 07:34:12;;;;;;;13.95;10.88;;;18.00;99.90;;;;;;5056337;28;20134;-81
2022/06/09 07:36:38;;;;;;;15.57;11.23;;;17.90;99.90;;;;;;5058893;28;20052;-81
2022/06/09 07:39:04;;;;;;;11.00;9.32;;;17.70;99.90;;;;;;5039155;28;20037;-81
2022/06/09 07:41:29;;;;;;;15.13;11.25;;;17.80;99.90;;;;;;5055761;28;20381;-81
2022/06/09 07:43:55;;;;;;;11.27;10.15;;;18.00;99.90;;;;;;5056359;28;20047;-81
2022/06/09 07:46:21;;;;;;;15.57;10.38;;;17.90;99.90;;;;;;5057750;28;20132;-81
2022/06/09 07:48:47;;;;;;;12.20;10.23;;;17.90;99.90;;;;;;5057418;28;20060;-81
2022/06/09 07:51:13;;;;;;;11.95;9.98;;;18.00;99.90;;;;;;5056041;28;20056;-81
2022/06/09 07:53:39;;;;;;;10.52;7.95;;;18.20;99.90;;;;;;5054579;28;20414;-81
2022/06/09 07:56:06;;;;;;;10.02;8.57;;;18.40;99.90;;;;;;5039940;28;20080;-81
2022/06/09 07:58:32;;;;;;;8.45;7.57;;;18.70;99.90;;;;;;5054692;28;20045;-81
2022/06/09 08:00:57;;;;;;;9.70;7.68;;;18.90;99.90;;;;;;5058103;28;20122;-81
2022/06/09 08:03:26;;;;;;;6.90;5.32;;;18.70;99.90;;;;;;5055578;28;20040;-81
2022/06/09 08:05:52;;;;;;;8.38;6.32;;;18.60;99.90;;;;;;5056186;28;20045;-81
2022/06/09 08:08:19;;;;;;;7.55;6.35;;;18.70;99.90;;;;;;5055321;28;20033;-81
2022/06/09 08:10:46;;;;;;;7.55;5.57;;;18.90;99.90;;;;;;5038966;28;20037;-81
2022/06/09 08:13:12;;;;;;;4.68;4.28;;;18.90;99.90;;;;;;5038548;28;20067;-81
2022/06/09 08:15:38;;;;;;;6.53;4.45;;;19.00;99.90;;;;;;5053461;28;20037;-81
2022/06/09 08:18:05;;;;;;;6.00;5.22;;;19.20;99.90;;;;;;5057844;28;20068;-81
2022/06/09 08:20:33;;;;;;;12.30;6.65;;;19.40;99.90;;;;;;5058588;28;20033;-81
2022/06/09 08:23:04;;;;;;;5.80;5.25;;;19.30;99.90;;;;;;5057905;28;20037;-81
2022/06/09 08:25:30;;;;;;;4.40;4.00;;;19.20;99.90;;;;;;5058062;28;20037;-81
2022/06/09 08:27:57;;;;;;;8.52;4.35;;;19.30;99.90;;;;;;5060030;28;20048;-81
2022/06/09 08:30:23;;;;;;;5.13;2.97;;;19.60;99.90;;;;;;5041838;28;20063;-82
2022/06/09 08:32:48;;;;;;;4.13;1.92;;;19.80;99.90;;;;;;5057531;28;20045;-81
2022/06/09 08:35:16;;;;;;;7.47;3.25;;;20.10;99.90;;;;;;5025134;28;20051;-80
2022/06/09 08:37:45;;;;;;;4.22;2.53;;;20.00;99.90;;;;;;5043177;28;20045;-81
2022/06/09 08:40:14;;;;;;;6.18;3.03;;;19.60;99.90;;;;;;5041798;28;20040;-81
2022/06/09 08:43:17;;;;;;;2.85;1.90;;;19.10;99.90;;;;;;5059220;28;20045;-81
2022/06/09 08:45:45;;;;;;;1.92;1.60;;;19.00;99.90;;;;;;5058414;28;20048;-81
2022/06/09 08:48:20;;;;;;;3.38;1.60;;;19.50;99.90;;;;;;5040892;28;20115;-81
2022/06/09 08:50:51;;;;;;;7.82;2.50;;;20.00;99.90;;;;;;5058929;28;20048;-81
2022/06/09 08:53:23;;;;;;;4.55;1.45;;;20.10;99.90;;;;;;5056856;28;20037;-81
2022/06/09 08:56:08;;;;;;;8.40;1.98;;;20.20;99.90;;;;;;5058103;28;20132;-81
2022/06/09 08:58:41;;;;;;;3.25;0.90;;;20.20;99.90;;;;;;5040615;28;20105;-81
2022/06/09 09:01:09;;;;;;;1.13;0.65;;;20.30;99.90;;;;;;5058508;28;20041;-81
2022/06/09 09:03:42;;;;;;;4.25;1.30;;;20.30;99.90;;;;;;5057282;28;20045;-81
2022/06/09 09:06:32;;;;;;;4.80;0.80;;;20.20;99.90;;;;;;5058700;28;20055;-81
2022/06/09 09:09:08;;;;;;;2.03;0.63;;;20.20;99.90;;;;;;5057527;28;20051;-81
2022/06/09 09:11:46;;;;;;;2.00;0.25;;;20.30;99.90;;;;;;5041006;28;20059;-81
2022/06/09 09:14:17;;;;;;;2.72;0.30;;;20.80;99.90;;;;;;5058983;28;20048;-81
2022/06/09 09:17:05;;;;;;;8.07;0.70;;;20.80;99.90;;;;;;5056343;28;20041;-81
2022/06/09 09:20:20;;;;;;;4.65;0.90;;;20.40;99.90;;;;;;5057675;28;20102;-81
2022/06/09 09:23:11;;;;;;;1.83;0.63;;;19.90;99.90;;;;;;5043562;28;20135;-81
2022/06/09 09:25:55;;;;;;;1.67;0.77;;;20.00;99.90;;;;;;5056213;28;20037;-82
2022/06/09 09:28:32;;;;;;;2.08;0.50;;;20.60;99.90;;;;;;5049943;28;20037;-81
2022/06/09 09:31:15;;;;;;;2.75;0.40;;;21.10;99.90;;;;;;5072761;28;20033;-82
2022/06/09 09:33:41;;;;;;;2.28;0.20;;;21.30;99.90;;;;;;5069115;28;20068;-80
2022/06/09 09:36:21;;;;;;;1.17;0.30;;;21.30;99.90;;;;;;5069862;28;20089;-80
2022/06/09 09:38:52;;;;;;;1.85;0.20;;;21.10;99.90;;;;;;5070455;28;20040;-80
2022/06/09 09:41:31;;;;;;;3.05;0.35;;;21.20;99.90;;;;;;5065112;28;20044;-80
2022/06/09 09:43:57;;;;;;;1.30;0.30;;;21.30;99.90;;;;;;5060915;28;20036;-79
2022/06/09 09:46:33;;;;;;;2.47;0.30;;;21.20;99.90;;;;;;5060328;28;20037;-80
2022/06/09 09:49:15;;;;;;;2.13;0.75;;;21.00;99.90;;;;;;5058417;28;20045;-80
2022/06/09 09:51:42;;;;;;;0.90;0.28;;;21.00;99.90;;;;;;5059093;28;20094;-80
2022/06/09 09:54:39;;;;;;;4.72;0.60;;;21.20;99.90;;;;;;5041497;28;20460;-80
2022/06/09 09:57:21;;;;;;;1.08;0.45;;;21.20;99.90;;;;;;5028264;28;20057;-80
2022/06/09 09:59:55;;;;;;;2.83;0.40;;;21.30;99.90;;;;;;5059459;28;20064;-79
2022/06/09 10:08:39;;;;;;;1.05;0.30;;;22.10;99.90;;;;;;5057331;28;20045;-80
2022/06/09 10:14:29;;;;;;;;;;;21.70;99.90;;;;;;5057737;28;20131;-79
2022/06/09 10:16:55;;;;;;;2.22;0.40;;;21.60;99.90;;;;;;5057380;28;19983;-80
2022/06/09 10:19:25;;;;;;;1.30;0.20;;;21.50;99.90;;;;;;5057981;28;20549;-80
2022/06/09 10:21:57;;;;;;;1.73;0.57;;;21.70;99.90;;;;;;5057696;28;20044;-80
2022/06/09 10:24:37;;;;;;;1.58;0.40;;;22.20;99.90;;;;;;5058073;28;20178;-80
2022/06/09 10:27:04;;;;;;;3.25;0.20;;;22.60;99.90;;;;;;5057626;28;20080;-80
2022/06/09 10:29:39;;;;;;;3.15;0.30;;;22.60;99.90;;;;;;5040747;28;20090;-80
2022/06/09 10:32:16;;;;;;;2.17;0.35;;;22.20;99.40;;;;;;5057516;28;20049;-81
2022/06/09 10:34:50;;;;;;;2.10;0.35;;;22.10;99.70;;;;;;5057200;28;20040;-80
2022/06/09 10:37:25;;;;;;;2.63;0.35;;;22.20;99.70;;;;;;5057351;28;20105;-80
2022/06/09 10:40:13;;;;;;;1.00;0.40;;;22.60;98.40;;;;;;5056327;28;20123;-79
2022/06/09 10:42:50;;;;;;;3.30;0.55;;;22.20;94.50;;;;;;5057564;28;20044;-80
2022/06/09 10:45:36;;;;;;;1.15;0.20;;;21.90;99.00;;;;;;5056776;28;20510;-80
2022/06/09 10:55:26;;;;;;;1.75;0.30;;;22.80;99.90;;;;;;5016703;28;20045;-80
2022/06/09 10:57:56;;;;;;;1.20;0.52;;;23.00;98.80;;;;;;5055088;28;20045;-79
2022/06/09 11:00:36;;;;;;;0.57;0.20;;;22.80;99.90;;;;;;5057112;28;20120;-80
2022/06/09 11:03:11;;;;;;;0.85;0.20;;;22.30;99.90;;;;;;5055193;28;20536;-80
2022/06/09 11:06:04;;;;;;;1.90;0.43;;;22.20;99.90;;;;;;5039454;28;20041;-79
2022/06/09 11:08:42;;;;;;;2.10;0.35;;;22.10;99.90;;;;;;5055596;28;20411;-80
2022/06/09 11:11:25;;;;;;;1.65;0.10;;;21.80;99.90;;;;;;5055085;28;20044;-79
2022/06/09 11:14:35;;;;;;;4.90;0.30;;;21.60;99.80;;;;;;5055773;28;20053;-79
2022/06/09 11:17:33;;;;;;;1.17;0.20;;;21.70;92.10;;;;;;5038474;28;20120;-79
2022/06/09 11:20:23;;;;;;;2.10;0.30;;;22.10;96.30;;;;;;5019753;28;20464;-79
2022/06/09 11:23:18;;;;;;;2.85;0.55;;;22.40;99.90;;;;;;5057401;28;20407;-80
2022/06/09 11:26:11;;;;;;;2.63;0.20;;;22.60;99.10;;;;;;5054657;28;20043;-79
2022/06/09 11:28:37;;;;;;;1.23;0.38;;;23.00;98.20;;;;;;5057453;28;20491;-79
2022/06/09 11:31:40;;;;;;;5.50;0.73;;;23.10;99.90;;;;;;5056973;28;20083;-79
2022/06/09 11:34:28;;;;;;;1.63;0.30;;;23.20;91.20;;;;;;5039397;28;20095;-80
2022/06/09 11:37:13;;;;;;;1.02;0.20;;;23.00;90.20;;;;;;5053915;28;20064;-79
2022/06/09 11:39:56;;;;;;;2.30;0.52;;;22.90;90.60;;;;;;5053328;28;20048;-79
2022/06/09 11:42:51;;;;;;;3.08;0.20;;;22.90;87.50;;;;;;5055094;28;20048;-79
2022/06/09 11:45:39;;;;;;;1.33;0.20;;;23.10;89.60;;;;;;5054002;28;20523;-79
2022/06/09 11:48:12;;;;;;;1.98;0.20;;;23.10;91.40;;;;;;5036728;28;20059;-79
2022/06/09 11:50:45;;;;;;;1.40;0.20;;;23.20;95.30;;;;;;5040017;28;20048;-79
2022/06/09 11:53:19;;;;;;;2.25;0.20;;;23.20;90.20;;;;;;5058865;28;20361;-79
2022/06/09 11:55:57;;;;;;;1.50;0.28;;;23.10;90.30;;;;;;5060640;28;20048;-79
2022/06/09 11:58:34;;;;;;;2.47;0.55;;;23.10;92.80;;;;;;5059578;28;20422;-79
2022/06/09 12:01:15;;;;;;;1.85;0.10;;;23.10;89.60;;;;;;5062206;28;20048;-79
2022/06/09 12:04:07;;;;;;;4.22;0.50;;;23.10;83.00;;;;;;5059652;28;20088;-79
2022/06/09 12:06:46;;;;;;;1.65;0.20;;;23.10;88.20;;;;;;5060254;28;20040;-79
2022/06/09 12:09:38;;;;;;;2.17;0.40;;;23.10;91.50;;;;;;5061353;28;20120;-79
2022/06/09 12:12:38;;;;;;;1.27;0.20;;;23.20;82.30;;;;;;5058197;28;20044;-79
2022/06/09 12:15:15;;;;;;;2.75;0.20;;;23.30;86.80;;;;;;5060289;28;20075;-79
2022/06/09 12:18:03;;;;;;;3.50;0.40;;;23.70;82.70;;;;;;5059652;28;20109;-79
2022/06/09 12:20:41;;;;;;;1.75;0.20;;;23.90;80.80;;;;;;5059305;28;20040;-79
2022/06/09 12:23:25;;;;;;;0.75;0.10;;;24.00;83.40;;;;;;5060494;28;20118;-79
2022/06/09 12:26:09;;;;;;;3.10;0.35;;;24.00;82.10;;;;;;5059113;28;20072;-79
2022/06/09 12:28:50;;;;;;;2.28;0.20;;;24.10;79.40;;;;;;5060536;28;20076;-79
2022/06/09 12:31:16;;;;;;;2.50;0.63;;;24.10;77.30;;;;;;5057688;28;20033;-79
2022/06/09 12:34:01;;;;;;;1.92;0.15;;;24.10;81.10;;;;;;5054686;28;20084;-79
2022/06/09 12:36:35;;;;;;;;;;;24.20;75.50;;;;;;5041048;28;20057;-79
2022/06/09 12:39:05;;;;;;;1.83;0.20;;;24.30;77.50;;;;;;5021878;28;19917;-79
2022/06/09 12:41:37;;;;;;;2.92;0.40;;;24.20;85.50;;;;;;5039636;28;20029;-79
2022/06/09 12:44:06;;;;;;;3.67;0.20;;;24.10;80.20;;;;;;5022466;28;20092;-79
2022/06/09 12:46:32;;;;;;;5.63;0.50;;;24.00;81.40;;;;;;5038613;28;20049;-79
2022/06/09 12:48:58;;;;;;;2.65;0.20;;;24.10;81.00;;;;;;5037432;28;20095;-79
2022/06/09 12:51:31;;;;;;;2.63;0.30;;;24.00;80.50;;;;;;5039997;28;20041;-79
2022/06/09 12:54:19;;;;;;;4.18;0.20;;;24.10;81.90;;;;;;5021338;28;20041;-79
2022/06/09 12:57:05;;;;;;;3.53;0.60;;;24.30;75.60;;;;;;5040726;28;20056;-79
2022/06/09 12:59:55;;;;;;;0.95;0.20;;;24.20;77.70;;;;;;5035661;28;20041;-78
2022/06/09 13:02:27;;;;;;;1.13;0.20;;;24.10;79.10;;;;;;5050951;28;20033;-79
2022/06/09 13:05:13;;;;;;;1.00;0.30;;;24.30;76.50;;;;;;5032136;28;20112;-79
2022/06/09 13:08:09;;;;;;;1.75;0.20;;;24.40;72.80;;;;;;5047205;28;20072;-79
2022/06/09 13:10:38;;;;;;;1.83;0.25;;;24.20;75.10;;;;;;5050506;28;20041;-79
2022/06/09 13:13:17;;;;;;;2.72;1.08;;;24.10;77.60;;;;;;5037690;28;20038;-78
2022/06/09 13:15:52;;;;;;;1.80;0.25;;;23.80;74.50;;;;;;5056055;28;20056;-79
2022/06/09 13:18:32;;;;;;;3.97;0.70;;;23.60;77.00;;;;;;5049734;28;20045;-79
2022/06/09 13:21:20;;;;;;;2.22;0.38;;;23.80;77.50;;;;;;5037626;28;20077;-79
2022/06/09 13:23:49;;;;;;;2.42;0.20;;;23.70;72.80;;;;;;5053039;28;20392;-79
2022/06/09 13:26:21;;;;;;;4.40;0.68;;;23.60;75.50;;;;;;5059544;28;20446;-79